sensor_id;sensor_type;location;lat;lon;timestamp;P1;durP1;ratioP1;P2;durP2;ratioP2
4986;SDS011;12674;51.500;7.552;2022-08-02T00:01:55;8.90;;;3.80;;
4986;SDS011;12674;51.500;7.552;2022-08-02T00:03:58;9.05;;;3.55;;
4986;SDS011;12674;51.500;7.552;2022-08-02T00:06:01;5.47;;;3.40;;
4986;SDS011;12674;51.500;7.552;2022-08-02T00:08:05;7.22;;;2.53;;
4986;SDS011;12674;51.500;7.552;2022-08-02T00:10:09;9.38;;;3.40;;
4986;SDS011;12674;51.500;7.552;2022-08-02T00:12:12;9.88;;;3.20;;
4986;SDS011;12674;51.500;7.552;2022-08-02T00:14:16;7.95;;;3.17;;
4986;SDS011;12674;51.500;7.552;2022-08-02T00:16:19;9.88;;;3.67;;
4986;SDS011;12674;51.500;7.552;2022-08-02T00:18:40;4.93;;;2.90;;
4986;SDS011;12674;51.500;7.552;2022-08-02T00:20:43;4.72;;;3.15;;
4986;SDS011;12674;51.500;7.552;2022-08-02T00:22:46;5.72;;;2.83;;
4986;SDS011;12674;51.500;7.552;2022-08-02T00:24:49;10.07;;;3.15;;
4986;SDS011;12674;51.500;7.552;2022-08-02T00:26:52;7.47;;;3.42;;
4986;SDS011;12674;51.500;7.552;2022-08-02T00:28:55;10.45;;;3.55;;
4986;SDS011;12674;51.500;7.552;2022-08-02T00:30:58;10.63;;;3.35;;
4986;SDS011;12674;51.500;7.552;2022-08-02T00:33:01;5.30;;;3.03;;
4986;SDS011;12674;51.500;7.552;2022-08-02T00:35:07;8.63;;;3.78;;
4986;SDS011;12674;51.500;7.552;2022-08-02T00:37:12;7.18;;;3.63;;
4986;SDS011;12674;51.500;7.552;2022-08-02T00:39:15;5.95;;;3.20;;
4986;SDS011;12674;51.500;7.552;2022-08-02T00:41:42;17.90;;;4.20;;
4986;SDS011;12674;51.500;7.552;2022-08-02T00:43:47;6.55;;;3.55;;
4986;SDS011;12674;51.500;7.552;2022-08-02T00:45:51;11.45;;;3.70;;
4986;SDS011;12674;51.500;7.552;2022-08-02T00:48:04;10.35;;;3.55;;
4986;SDS011;12674;51.500;7.552;2022-08-02T00:50:10;7.03;;;3.22;;
4986;SDS011;12674;51.500;7.552;2022-08-02T00:52:13;6.88;;;3.20;;
4986;SDS011;12674;51.500;7.552;2022-08-02T00:54:16;6.63;;;3.88;;
4986;SDS011;12674;51.500;7.552;2022-08-02T00:56:19;5.97;;;3.38;;
4986;SDS011;12674;51.500;7.552;2022-08-02T00:58:22;7.25;;;3.40;;
4986;SDS011;12674;51.500;7.552;2022-08-02T01:00:25;8.95;;;3.10;;
4986;SDS011;12674;51.500;7.552;2022-08-02T01:02:30;4.35;;;3.15;;
4986;SDS011;12674;51.500;7.552;2022-08-02T01:04:33;7.85;;;3.88;;
4986;SDS011;12674;51.500;7.552;2022-08-02T01:06:38;5.03;;;3.13;;
4986;SDS011;12674;51.500;7.552;2022-08-02T01:08:42;7.03;;;3.20;;
4986;SDS011;12674;51.500;7.552;2022-08-02T01:10:45;4.85;;;2.47;;
4986;SDS011;12674;51.500;7.552;2022-08-02T01:12:50;5.28;;;3.08;;
4986;SDS011;12674;51.500;7.552;2022-08-02T01:14:55;8.02;;;3.17;;
4986;SDS011;12674;51.500;7.552;2022-08-02T01:17:01;13.13;;;3.88;;
4986;SDS011;12674;51.500;7.552;2022-08-02T01:19:09;6.82;;;2.95;;
4986;SDS011;12674;51.500;7.552;2022-08-02T01:21:25;5.13;;;3.17;;
4986;SDS011;12674;51.500;7.552;2022-08-02T01:23:40;7.32;;;3.00;;
4986;SDS011;12674;51.500;7.552;2022-08-02T01:26:00;4.00;;;2.85;;
4986;SDS011;12674;51.500;7.552;2022-08-02T01:28:17;10.40;;;3.10;;
4986;SDS011;12674;51.500;7.552;2022-08-02T01:30:28;6.78;;;2.85;;
4986;SDS011;12674;51.500;7.552;2022-08-02T01:32:32;6.25;;;2.75;;
4986;SDS011;12674;51.500;7.552;2022-08-02T01:34:39;7.28;;;3.40;;
4986;SDS011;12674;51.500;7.552;2022-08-02T01:36:45;6.47;;;3.20;;
4986;SDS011;12674;51.500;7.552;2022-08-02T01:38:50;8.90;;;2.80;;
4986;SDS011;12674;51.500;7.552;2022-08-02T01:40:55;6.70;;;3.00;;
4986;SDS011;12674;51.500;7.552;2022-08-02T01:42:58;7.47;;;3.17;;
4986;SDS011;12674;51.500;7.552;2022-08-02T01:45:07;7.18;;;3.28;;
4986;SDS011;12674;51.500;7.552;2022-08-02T01:47:13;9.18;;;3.60;;
4986;SDS011;12674;51.500;7.552;2022-08-02T01:49:19;7.40;;;2.60;;
4986;SDS011;12674;51.500;7.552;2022-08-02T01:51:24;5.03;;;3.10;;
4986;SDS011;12674;51.500;7.552;2022-08-02T01:53:43;10.27;;;3.63;;
4986;SDS011;12674;51.500;7.552;2022-08-02T01:55:47;4.35;;;3.20;;
4986;SDS011;12674;51.500;7.552;2022-08-02T01:57:59;8.40;;;3.35;;
4986;SDS011;12674;51.500;7.552;2022-08-02T02:00:04;4.65;;;3.00;;
4986;SDS011;12674;51.500;7.552;2022-08-02T02:02:11;7.70;;;3.08;;
4986;SDS011;12674;51.500;7.552;2022-08-02T02:04:15;9.98;;;3.58;;
4986;SDS011;12674;51.500;7.552;2022-08-02T02:06:19;11.93;;;3.83;;
4986;SDS011;12674;51.500;7.552;2022-08-02T02:08:25;9.18;;;3.28;;
4986;SDS011;12674;51.500;7.552;2022-08-02T02:10:30;6.63;;;3.20;;
4986;SDS011;12674;51.500;7.552;2022-08-02T02:12:35;9.02;;;3.60;;
4986;SDS011;12674;51.500;7.552;2022-08-02T02:14:38;8.60;;;3.53;;
4986;SDS011;12674;51.500;7.552;2022-08-02T02:16:53;10.07;;;3.60;;
4986;SDS011;12674;51.500;7.552;2022-08-02T02:18:59;7.85;;;3.00;;
4986;SDS011;12674;51.500;7.552;2022-08-02T02:21:03;5.18;;;3.10;;
4986;SDS011;12674;51.500;7.552;2022-08-02T02:23:07;7.78;;;3.28;;
4986;SDS011;12674;51.500;7.552;2022-08-02T02:25:10;10.55;;;2.80;;
4986;SDS011;12674;51.500;7.552;2022-08-02T02:27:15;15.52;;;3.70;;
4986;SDS011;12674;51.500;7.552;2022-08-02T02:29:19;12.57;;;3.65;;
4986;SDS011;12674;51.500;7.552;2022-08-02T02:31:23;11.40;;;3.78;;
4986;SDS011;12674;51.500;7.552;2022-08-02T02:33:28;9.38;;;3.72;;
4986;SDS011;12674;51.500;7.552;2022-08-02T02:35:33;6.88;;;3.67;;
4986;SDS011;12674;51.500;7.552;2022-08-02T02:37:38;13.65;;;3.50;;
4986;SDS011;12674;51.500;7.552;2022-08-02T02:39:42;9.32;;;3.75;;
4986;SDS011;12674;51.500;7.552;2022-08-02T02:41:46;8.13;;;3.35;;
4986;SDS011;12674;51.500;7.552;2022-08-02T02:43:51;6.53;;;3.10;;
4986;SDS011;12674;51.500;7.552;2022-08-02T02:45:55;10.05;;;3.38;;
4986;SDS011;12674;51.500;7.552;2022-08-02T02:47:59;9.60;;;3.28;;
4986;SDS011;12674;51.500;7.552;2022-08-02T02:50:04;9.50;;;3.30;;
4986;SDS011;12674;51.500;7.552;2022-08-02T02:52:08;6.25;;;3.40;;
4986;SDS011;12674;51.500;7.552;2022-08-02T02:54:12;8.00;;;3.47;;
4986;SDS011;12674;51.500;7.552;2022-08-02T02:56:36;7.43;;;3.22;;
4986;SDS011;12674;51.500;7.552;2022-08-02T02:58:39;7.63;;;3.40;;
4986;SDS011;12674;51.500;7.552;2022-08-02T03:00:42;5.18;;;3.10;;
4986;SDS011;12674;51.500;7.552;2022-08-02T03:03:03;10.00;;;3.10;;
4986;SDS011;12674;51.500;7.552;2022-08-02T03:05:08;11.15;;;3.50;;
4986;SDS011;12674;51.500;7.552;2022-08-02T03:07:12;9.13;;;3.85;;
4986;SDS011;12674;51.500;7.552;2022-08-02T03:09:15;9.02;;;3.35;;
4986;SDS011;12674;51.500;7.552;2022-08-02T03:11:18;10.73;;;4.45;;
4986;SDS011;12674;51.500;7.552;2022-08-02T03:13:22;14.30;;;4.90;;
4986;SDS011;12674;51.500;7.552;2022-08-02T03:15:33;7.18;;;4.63;;
4986;SDS011;12674;51.500;7.552;2022-08-02T03:17:37;14.50;;;4.40;;
4986;SDS011;12674;51.500;7.552;2022-08-02T03:19:41;10.40;;;4.70;;
4986;SDS011;12674;51.500;7.552;2022-08-02T03:21:46;7.53;;;4.10;;
4986;SDS011;12674;51.500;7.552;2022-08-02T03:23:58;4.63;;;3.70;;
4986;SDS011;12674;51.500;7.552;2022-08-02T03:26:01;5.88;;;4.32;;
4986;SDS011;12674;51.500;7.552;2022-08-02T03:28:04;7.55;;;4.18;;
4986;SDS011;12674;51.500;7.552;2022-08-02T03:30:08;5.72;;;3.50;;
4986;SDS011;12674;51.500;7.552;2022-08-02T03:32:12;7.70;;;4.25;;
4986;SDS011;12674;51.500;7.552;2022-08-02T03:34:15;21.13;;;5.20;;
4986;SDS011;12674;51.500;7.552;2022-08-02T03:36:19;6.43;;;4.15;;
4986;SDS011;12674;51.500;7.552;2022-08-02T03:38:24;8.88;;;4.70;;
4986;SDS011;12674;51.500;7.552;2022-08-02T03:40:29;8.48;;;4.75;;
4986;SDS011;12674;51.500;7.552;2022-08-02T03:42:32;9.77;;;3.90;;
4986;SDS011;12674;51.500;7.552;2022-08-02T03:44:35;14.48;;;4.47;;
4986;SDS011;12674;51.500;7.552;2022-08-02T03:46:40;5.80;;;4.43;;
4986;SDS011;12674;51.500;7.552;2022-08-02T03:48:43;7.57;;;3.88;;
4986;SDS011;12674;51.500;7.552;2022-08-02T03:50:47;13.07;;;4.05;;
4986;SDS011;12674;51.500;7.552;2022-08-02T03:52:52;8.43;;;4.55;;
4986;SDS011;12674;51.500;7.552;2022-08-02T03:54:59;11.88;;;4.40;;
4986;SDS011;12674;51.500;7.552;2022-08-02T03:57:03;5.22;;;3.55;;
4986;SDS011;12674;51.500;7.552;2022-08-02T03:59:11;9.80;;;4.30;;
4986;SDS011;12674;51.500;7.552;2022-08-02T04:01:15;13.85;;;4.20;;
4986;SDS011;12674;51.500;7.552;2022-08-02T04:03:18;5.47;;;3.40;;
4986;SDS011;12674;51.500;7.552;2022-08-02T04:05:21;7.40;;;4.72;;
4986;SDS011;12674;51.500;7.552;2022-08-02T04:07:24;5.82;;;4.22;;
4986;SDS011;12674;51.500;7.552;2022-08-02T04:09:47;8.30;;;4.68;;
4986;SDS011;12674;51.500;7.552;2022-08-02T04:11:52;15.35;;;5.40;;
4986;SDS011;12674;51.500;7.552;2022-08-02T04:13:55;7.32;;;4.90;;
4986;SDS011;12674;51.500;7.552;2022-08-02T04:16:01;10.73;;;5.22;;
4986;SDS011;12674;51.500;7.552;2022-08-02T04:18:06;9.90;;;4.70;;
4986;SDS011;12674;51.500;7.552;2022-08-02T04:20:11;12.73;;;5.25;;
4986;SDS011;12674;51.500;7.552;2022-08-02T04:22:17;7.68;;;4.63;;
4986;SDS011;12674;51.500;7.552;2022-08-02T04:24:22;9.70;;;5.38;;
4986;SDS011;12674;51.500;7.552;2022-08-02T04:26:28;12.43;;;4.75;;
4986;SDS011;12674;51.500;7.552;2022-08-02T04:28:33;10.00;;;4.53;;
4986;SDS011;12674;51.500;7.552;2022-08-02T04:30:37;9.15;;;4.95;;
4986;SDS011;12674;51.500;7.552;2022-08-02T04:32:41;10.27;;;4.72;;
4986;SDS011;12674;51.500;7.552;2022-08-02T04:34:44;10.73;;;4.88;;
4986;SDS011;12674;51.500;7.552;2022-08-02T04:37:07;10.63;;;4.72;;
4986;SDS011;12674;51.500;7.552;2022-08-02T04:39:10;9.10;;;4.50;;
4986;SDS011;12674;51.500;7.552;2022-08-02T04:41:15;19.50;;;4.80;;
4986;SDS011;12674;51.500;7.552;2022-08-02T04:43:18;15.27;;;5.20;;
4986;SDS011;12674;51.500;7.552;2022-08-02T04:45:23;10.73;;;4.78;;
4986;SDS011;12674;51.500;7.552;2022-08-02T04:47:26;7.30;;;4.90;;
4986;SDS011;12674;51.500;7.552;2022-08-02T04:49:49;6.95;;;4.57;;
4986;SDS011;12674;51.500;7.552;2022-08-02T04:51:52;8.85;;;5.05;;
4986;SDS011;12674;51.500;7.552;2022-08-02T04:53:56;15.65;;;6.20;;
4986;SDS011;12674;51.500;7.552;2022-08-02T04:56:12;5.57;;;4.32;;
4986;SDS011;12674;51.500;7.552;2022-08-02T04:58:15;11.95;;;4.75;;
4986;SDS011;12674;51.500;7.552;2022-08-02T05:00:40;14.30;;;4.38;;
4986;SDS011;12674;51.500;7.552;2022-08-02T05:02:43;7.15;;;4.50;;
4986;SDS011;12674;51.500;7.552;2022-08-02T05:04:46;9.93;;;5.28;;
4986;SDS011;12674;51.500;7.552;2022-08-02T05:06:49;17.17;;;5.50;;
4986;SDS011;12674;51.500;7.552;2022-08-02T05:08:52;7.03;;;5.20;;
4986;SDS011;12674;51.500;7.552;2022-08-02T05:10:55;11.73;;;5.68;;
4986;SDS011;12674;51.500;7.552;2022-08-02T05:12:58;12.07;;;5.20;;
4986;SDS011;12674;51.500;7.552;2022-08-02T05:15:01;14.20;;;5.47;;
4986;SDS011;12674;51.500;7.552;2022-08-02T05:17:06;17.45;;;5.65;;
4986;SDS011;12674;51.500;7.552;2022-08-02T05:19:09;9.80;;;4.45;;
4986;SDS011;12674;51.500;7.552;2022-08-02T05:21:13;6.70;;;4.40;;
4986;SDS011;12674;51.500;7.552;2022-08-02T05:23:17;10.48;;;4.88;;
4986;SDS011;12674;51.500;7.552;2022-08-02T05:25:20;8.27;;;4.28;;
4986;SDS011;12674;51.500;7.552;2022-08-02T05:27:23;7.63;;;4.13;;
4986;SDS011;12674;51.500;7.552;2022-08-02T05:29:26;10.85;;;4.07;;
4986;SDS011;12674;51.500;7.552;2022-08-02T05:31:29;10.15;;;5.40;;
4986;SDS011;12674;51.500;7.552;2022-08-02T05:33:34;6.70;;;3.80;;
4986;SDS011;12674;51.500;7.552;2022-08-02T05:35:37;16.52;;;4.72;;
4986;SDS011;12674;51.500;7.552;2022-08-02T05:37:40;9.27;;;4.47;;
4986;SDS011;12674;51.500;7.552;2022-08-02T05:39:43;8.00;;;4.47;;
4986;SDS011;12674;51.500;7.552;2022-08-02T05:41:56;5.40;;;4.05;;
4986;SDS011;12674;51.500;7.552;2022-08-02T05:43:59;8.68;;;4.28;;
4986;SDS011;12674;51.500;7.552;2022-08-02T05:46:03;14.43;;;4.72;;
4986;SDS011;12674;51.500;7.552;2022-08-02T05:48:06;9.60;;;3.90;;
4986;SDS011;12674;51.500;7.552;2022-08-02T05:50:10;13.48;;;4.40;;
4986;SDS011;12674;51.500;7.552;2022-08-02T05:52:14;6.60;;;4.80;;
4986;SDS011;12674;51.500;7.552;2022-08-02T05:54:18;13.73;;;4.65;;
4986;SDS011;12674;51.500;7.552;2022-08-02T05:56:24;10.20;;;4.07;;
4986;SDS011;12674;51.500;7.552;2022-08-02T05:58:35;9.07;;;5.13;;
4986;SDS011;12674;51.500;7.552;2022-08-02T06:00:42;6.80;;;3.80;;
4986;SDS011;12674;51.500;7.552;2022-08-02T06:05:08;9.13;;;4.22;;
4986;SDS011;12674;51.500;7.552;2022-08-02T06:07:14;11.82;;;4.05;;
4986;SDS011;12674;51.500;7.552;2022-08-02T06:09:19;10.63;;;4.50;;
4986;SDS011;12674;51.500;7.552;2022-08-02T06:11:31;9.77;;;4.43;;
4986;SDS011;12674;51.500;7.552;2022-08-02T06:13:37;17.77;;;5.53;;
4986;SDS011;12674;51.500;7.552;2022-08-02T06:15:41;11.65;;;4.50;;
4986;SDS011;12674;51.500;7.552;2022-08-02T06:17:54;9.05;;;4.30;;
4986;SDS011;12674;51.500;7.552;2022-08-02T06:19:58;9.98;;;3.78;;
4986;SDS011;12674;51.500;7.552;2022-08-02T06:22:03;7.03;;;3.80;;
4986;SDS011;12674;51.500;7.552;2022-08-02T06:24:36;13.45;;;3.83;;
4986;SDS011;12674;51.500;7.552;2022-08-02T06:26:41;5.53;;;3.70;;
4986;SDS011;12674;51.500;7.552;2022-08-02T06:28:45;7.68;;;4.43;;
4986;SDS011;12674;51.500;7.552;2022-08-02T06:30:49;7.57;;;3.92;;
4986;SDS011;12674;51.500;7.552;2022-08-02T06:32:55;9.63;;;3.97;;
4986;SDS011;12674;51.500;7.552;2022-08-02T06:34:59;17.30;;;4.05;;
4986;SDS011;12674;51.500;7.552;2022-08-02T06:37:05;13.35;;;3.90;;
4986;SDS011;12674;51.500;7.552;2022-08-02T06:39:13;6.90;;;3.40;;
4986;SDS011;12674;51.500;7.552;2022-08-02T06:41:21;22.77;;;4.28;;
4986;SDS011;12674;51.500;7.552;2022-08-02T06:43:28;14.35;;;3.75;;
4986;SDS011;12674;51.500;7.552;2022-08-02T06:45:33;4.82;;;2.92;;
4986;SDS011;12674;51.500;7.552;2022-08-02T06:47:36;10.75;;;3.28;;
4986;SDS011;12674;51.500;7.552;2022-08-02T06:49:39;11.40;;;3.75;;
4986;SDS011;12674;51.500;7.552;2022-08-02T06:51:54;8.80;;;3.28;;
4986;SDS011;12674;51.500;7.552;2022-08-02T06:53:59;7.95;;;3.90;;
4986;SDS011;12674;51.500;7.552;2022-08-02T06:56:02;9.90;;;4.03;;
4986;SDS011;12674;51.500;7.552;2022-08-02T06:58:10;10.23;;;4.57;;
4986;SDS011;12674;51.500;7.552;2022-08-02T07:00:14;4.88;;;3.22;;
4986;SDS011;12674;51.500;7.552;2022-08-02T07:02:18;7.03;;;3.90;;
4986;SDS011;12674;51.500;7.552;2022-08-02T07:04:21;16.05;;;4.18;;
4986;SDS011;12674;51.500;7.552;2022-08-02T07:06:24;9.25;;;3.55;;
4986;SDS011;12674;51.500;7.552;2022-08-02T07:08:27;16.90;;;4.28;;
4986;SDS011;12674;51.500;7.552;2022-08-02T07:10:34;10.98;;;3.42;;
4986;SDS011;12674;51.500;7.552;2022-08-02T07:12:37;7.78;;;3.55;;
4986;SDS011;12674;51.500;7.552;2022-08-02T07:14:40;7.22;;;3.53;;
4986;SDS011;12674;51.500;7.552;2022-08-02T07:16:43;5.47;;;3.33;;
4986;SDS011;12674;51.500;7.552;2022-08-02T07:18:46;9.13;;;3.88;;
4986;SDS011;12674;51.500;7.552;2022-08-02T07:20:49;6.93;;;3.65;;
4986;SDS011;12674;51.500;7.552;2022-08-02T07:22:52;10.70;;;3.30;;
4986;SDS011;12674;51.500;7.552;2022-08-02T07:24:56;22.30;;;3.70;;
4986;SDS011;12674;51.500;7.552;2022-08-02T07:27:01;9.13;;;3.35;;
4986;SDS011;12674;51.500;7.552;2022-08-02T07:29:13;12.82;;;3.10;;
4986;SDS011;12674;51.500;7.552;2022-08-02T07:31:16;11.85;;;3.42;;
4986;SDS011;12674;51.500;7.552;2022-08-02T07:33:19;7.68;;;3.20;;
4986;SDS011;12674;51.500;7.552;2022-08-02T07:35:39;8.98;;;3.00;;
4986;SDS011;12674;51.500;7.552;2022-08-02T07:37:45;13.55;;;3.47;;
4986;SDS011;12674;51.500;7.552;2022-08-02T07:39:58;16.48;;;3.50;;
4986;SDS011;12674;51.500;7.552;2022-08-02T07:42:04;5.65;;;3.08;;
4986;SDS011;12674;51.500;7.552;2022-08-02T07:44:08;8.57;;;3.30;;
4986;SDS011;12674;51.500;7.552;2022-08-02T07:46:11;4.65;;;2.67;;
4986;SDS011;12674;51.500;7.552;2022-08-02T07:48:14;6.72;;;3.20;;
4986;SDS011;12674;51.500;7.552;2022-08-02T07:50:18;5.32;;;2.33;;
4986;SDS011;12674;51.500;7.552;2022-08-02T07:52:22;4.25;;;1.98;;
4986;SDS011;12674;51.500;7.552;2022-08-02T07:54:25;8.43;;;2.28;;
4986;SDS011;12674;51.500;7.552;2022-08-02T07:56:28;3.67;;;2.17;;
4986;SDS011;12674;51.500;7.552;2022-08-02T07:58:32;14.57;;;2.53;;
4986;SDS011;12674;51.500;7.552;2022-08-02T08:00:35;5.25;;;2.38;;
4986;SDS011;12674;51.500;7.552;2022-08-02T08:02:38;5.85;;;2.47;;
4986;SDS011;12674;51.500;7.552;2022-08-02T08:04:41;5.50;;;2.30;;
4986;SDS011;12674;51.500;7.552;2022-08-02T08:06:44;3.33;;;2.00;;
4986;SDS011;12674;51.500;7.552;2022-08-02T08:08:49;8.95;;;2.08;;
4986;SDS011;12674;51.500;7.552;2022-08-02T08:10:52;15.40;;;3.05;;
4986;SDS011;12674;51.500;7.552;2022-08-02T08:12:55;5.22;;;2.47;;
4986;SDS011;12674;51.500;7.552;2022-08-02T08:15:00;7.55;;;2.20;;
4986;SDS011;12674;51.500;7.552;2022-08-02T08:17:03;8.00;;;2.33;;
4986;SDS011;12674;51.500;7.552;2022-08-02T08:19:06;5.35;;;2.05;;
4986;SDS011;12674;51.500;7.552;2022-08-02T08:21:09;6.97;;;2.58;;
4986;SDS011;12674;51.500;7.552;2022-08-02T08:23:12;2.70;;;2.15;;
4986;SDS011;12674;51.500;7.552;2022-08-02T08:25:15;14.82;;;2.22;;
4986;SDS011;12674;51.500;7.552;2022-08-02T08:27:19;5.15;;;1.60;;
4986;SDS011;12674;51.500;7.552;2022-08-02T08:29:23;5.60;;;1.95;;
4986;SDS011;12674;51.500;7.552;2022-08-02T08:31:29;7.53;;;2.25;;
4986;SDS011;12674;51.500;7.552;2022-08-02T08:33:32;4.05;;;1.58;;
4986;SDS011;12674;51.500;7.552;2022-08-02T08:35:35;4.93;;;2.13;;
4986;SDS011;12674;51.500;7.552;2022-08-02T08:37:38;6.22;;;1.90;;
4986;SDS011;12674;51.500;7.552;2022-08-02T08:39:42;2.63;;;1.70;;
4986;SDS011;12674;51.500;7.552;2022-08-02T08:41:58;4.28;;;1.50;;
4986;SDS011;12674;51.500;7.552;2022-08-02T08:44:02;9.30;;;2.15;;
4986;SDS011;12674;51.500;7.552;2022-08-02T08:46:05;5.45;;;1.50;;
4986;SDS011;12674;51.500;7.552;2022-08-02T08:48:17;8.57;;;1.70;;
4986;SDS011;12674;51.500;7.552;2022-08-02T08:50:32;10.52;;;1.95;;
4986;SDS011;12674;51.500;7.552;2022-08-02T08:52:40;4.50;;;1.38;;
4986;SDS011;12674;51.500;7.552;2022-08-02T08:54:48;3.67;;;1.48;;
4986;SDS011;12674;51.500;7.552;2022-08-02T08:56:51;3.17;;;1.42;;
4986;SDS011;12674;51.500;7.552;2022-08-02T08:58:56;6.82;;;1.85;;
4986;SDS011;12674;51.500;7.552;2022-08-02T09:00:59;3.22;;;1.77;;
4986;SDS011;12674;51.500;7.552;2022-08-02T09:03:04;2.05;;;1.30;;
4986;SDS011;12674;51.500;7.552;2022-08-02T09:05:10;9.60;;;1.52;;
4986;SDS011;12674;51.500;7.552;2022-08-02T09:07:15;3.17;;;1.55;;
4986;SDS011;12674;51.500;7.552;2022-08-02T09:09:18;3.97;;;1.80;;
4986;SDS011;12674;51.500;7.552;2022-08-02T09:11:22;4.47;;;1.98;;
4986;SDS011;12674;51.500;7.552;2022-08-02T09:13:26;4.32;;;1.73;;
4986;SDS011;12674;51.500;7.552;2022-08-02T09:15:51;3.75;;;1.40;;
4986;SDS011;12674;51.500;7.552;2022-08-02T09:17:56;5.47;;;1.77;;
4986;SDS011;12674;51.500;7.552;2022-08-02T09:20:05;6.35;;;1.70;;
4986;SDS011;12674;51.500;7.552;2022-08-02T09:22:11;3.55;;;1.50;;
4986;SDS011;12674;51.500;7.552;2022-08-02T09:24:16;3.58;;;1.60;;
4986;SDS011;12674;51.500;7.552;2022-08-02T09:26:21;2.85;;;1.65;;
4986;SDS011;12674;51.500;7.552;2022-08-02T09:28:25;4.65;;;1.48;;
4986;SDS011;12674;51.500;7.552;2022-08-02T09:30:29;3.60;;;1.67;;
4986;SDS011;12674;51.500;7.552;2022-08-02T09:32:42;3.05;;;1.20;;
4986;SDS011;12674;51.500;7.552;2022-08-02T09:34:47;5.88;;;1.75;;
4986;SDS011;12674;51.500;7.552;2022-08-02T09:36:51;2.83;;;1.40;;
4986;SDS011;12674;51.500;7.552;2022-08-02T09:38:57;2.97;;;1.67;;
4986;SDS011;12674;51.500;7.552;2022-08-02T09:41:02;4.05;;;1.60;;
4986;SDS011;12674;51.500;7.552;2022-08-02T09:43:06;4.22;;;1.40;;
4986;SDS011;12674;51.500;7.552;2022-08-02T09:45:09;3.97;;;1.55;;
4986;SDS011;12674;51.500;7.552;2022-08-02T09:47:12;4.72;;;1.52;;
4986;SDS011;12674;51.500;7.552;2022-08-02T09:49:17;2.60;;;1.30;;
4986;SDS011;12674;51.500;7.552;2022-08-02T09:51:21;2.40;;;1.48;;
4986;SDS011;12674;51.500;7.552;2022-08-02T09:53:25;2.05;;;1.77;;
4986;SDS011;12674;51.500;7.552;2022-08-02T09:55:29;2.55;;;1.60;;
4986;SDS011;12674;51.500;7.552;2022-08-02T09:57:32;2.28;;;1.60;;
4986;SDS011;12674;51.500;7.552;2022-08-02T09:59:38;2.05;;;1.60;;
4986;SDS011;12674;51.500;7.552;2022-08-02T10:01:54;7.18;;;1.88;;
4986;SDS011;12674;51.500;7.552;2022-08-02T10:04:03;2.35;;;1.38;;
4986;SDS011;12674;51.500;7.552;2022-08-02T10:06:10;6.82;;;1.63;;
4986;SDS011;12674;51.500;7.552;2022-08-02T10:08:13;3.22;;;1.67;;
4986;SDS011;12674;51.500;7.552;2022-08-02T10:10:16;7.22;;;1.83;;
4986;SDS011;12674;51.500;7.552;2022-08-02T10:12:21;6.20;;;1.70;;
4986;SDS011;12674;51.500;7.552;2022-08-02T10:14:24;4.20;;;1.40;;
4986;SDS011;12674;51.500;7.552;2022-08-02T10:16:27;3.03;;;1.85;;
4986;SDS011;12674;51.500;7.552;2022-08-02T10:18:31;3.45;;;1.92;;
4986;SDS011;12674;51.500;7.552;2022-08-02T10:20:43;5.85;;;1.90;;
4986;SDS011;12674;51.500;7.552;2022-08-02T10:22:46;4.78;;;1.80;;
4986;SDS011;12674;51.500;7.552;2022-08-02T10:24:49;3.92;;;1.75;;
4986;SDS011;12674;51.500;7.552;2022-08-02T10:26:53;5.43;;;1.80;;
4986;SDS011;12674;51.500;7.552;2022-08-02T10:28:58;7.25;;;1.40;;
4986;SDS011;12674;51.500;7.552;2022-08-02T10:31:02;7.68;;;1.73;;
4986;SDS011;12674;51.500;7.552;2022-08-02T10:33:07;4.10;;;1.77;;
4986;SDS011;12674;51.500;7.552;2022-08-02T10:35:12;2.88;;;1.75;;
4986;SDS011;12674;51.500;7.552;2022-08-02T10:37:26;3.65;;;1.60;;
4986;SDS011;12674;51.500;7.552;2022-08-02T10:39:36;2.03;;;1.60;;
4986;SDS011;12674;51.500;7.552;2022-08-02T10:41:42;3.25;;;1.77;;
4986;SDS011;12674;51.500;7.552;2022-08-02T10:43:46;2.20;;;1.50;;
4986;SDS011;12674;51.500;7.552;2022-08-02T10:45:51;2.50;;;1.60;;
4986;SDS011;12674;51.500;7.552;2022-08-02T10:47:58;2.58;;;1.83;;
4986;SDS011;12674;51.500;7.552;2022-08-02T10:50:04;4.93;;;2.30;;
4986;SDS011;12674;51.500;7.552;2022-08-02T10:52:07;2.70;;;1.95;;
4986;SDS011;12674;51.500;7.552;2022-08-02T10:54:16;3.33;;;1.77;;
4986;SDS011;12674;51.500;7.552;2022-08-02T10:56:20;3.05;;;1.70;;
4986;SDS011;12674;51.500;7.552;2022-08-02T10:58:49;2.38;;;1.88;;
4986;SDS011;12674;51.500;7.552;2022-08-02T11:01:29;3.83;;;1.90;;
4986;SDS011;12674;51.500;7.552;2022-08-02T11:03:40;3.97;;;1.60;;
4986;SDS011;12674;51.500;7.552;2022-08-02T11:05:58;2.95;;;1.33;;
4986;SDS011;12674;51.500;7.552;2022-08-02T11:08:16;6.20;;;1.75;;
4986;SDS011;12674;51.500;7.552;2022-08-02T11:10:30;4.82;;;2.22;;
4986;SDS011;12674;51.500;7.552;2022-08-02T11:12:50;2.90;;;1.95;;
4986;SDS011;12674;51.500;7.552;2022-08-02T11:15:01;4.65;;;2.10;;
4986;SDS011;12674;51.500;7.552;2022-08-02T11:17:13;4.70;;;1.90;;
4986;SDS011;12674;51.500;7.552;2022-08-02T11:19:17;2.83;;;1.63;;
4986;SDS011;12674;51.500;7.552;2022-08-02T11:21:21;3.85;;;1.88;;
4986;SDS011;12674;51.500;7.552;2022-08-02T11:23:34;3.20;;;1.77;;
4986;SDS011;12674;51.500;7.552;2022-08-02T11:25:46;2.33;;;1.67;;
4986;SDS011;12674;51.500;7.552;2022-08-02T11:28:10;4.10;;;1.60;;
4986;SDS011;12674;51.500;7.552;2022-08-02T11:30:14;5.10;;;1.83;;
4986;SDS011;12674;51.500;7.552;2022-08-02T11:32:19;5.32;;;1.60;;
4986;SDS011;12674;51.500;7.552;2022-08-02T11:34:31;4.30;;;2.10;;
4986;SDS011;12674;51.500;7.552;2022-08-02T11:36:42;3.08;;;1.60;;
4986;SDS011;12674;51.500;7.552;2022-08-02T11:38:46;5.97;;;2.10;;
4986;SDS011;12674;51.500;7.552;2022-08-02T11:40:49;3.63;;;1.83;;
4986;SDS011;12674;51.500;7.552;2022-08-02T11:42:58;3.50;;;1.95;;
4986;SDS011;12674;51.500;7.552;2022-08-02T11:45:01;4.82;;;1.90;;
4986;SDS011;12674;51.500;7.552;2022-08-02T11:47:05;5.25;;;1.85;;
4986;SDS011;12674;51.500;7.552;2022-08-02T11:49:14;3.65;;;1.80;;
4986;SDS011;12674;51.500;7.552;2022-08-02T11:51:19;4.18;;;1.60;;
4986;SDS011;12674;51.500;7.552;2022-08-02T11:53:23;4.60;;;1.58;;
4986;SDS011;12674;51.500;7.552;2022-08-02T11:55:27;3.47;;;1.92;;
4986;SDS011;12674;51.500;7.552;2022-08-02T11:57:32;7.70;;;1.83;;
4986;SDS011;12674;51.500;7.552;2022-08-02T11:59:55;5.80;;;2.25;;
4986;SDS011;12674;51.500;7.552;2022-08-02T12:01:58;4.97;;;2.38;;
4986;SDS011;12674;51.500;7.552;2022-08-02T12:04:02;3.20;;;1.73;;
4986;SDS011;12674;51.500;7.552;2022-08-02T12:06:09;3.83;;;2.10;;
4986;SDS011;12674;51.500;7.552;2022-08-02T12:08:17;2.30;;;2.00;;
4986;SDS011;12674;51.500;7.552;2022-08-02T12:10:25;3.70;;;1.70;;
4986;SDS011;12674;51.500;7.552;2022-08-02T12:12:28;4.53;;;2.05;;
4986;SDS011;12674;51.500;7.552;2022-08-02T12:14:31;3.33;;;1.85;;
4986;SDS011;12674;51.500;7.552;2022-08-02T12:16:43;2.78;;;1.90;;
4986;SDS011;12674;51.500;7.552;2022-08-02T12:19:04;2.20;;;1.80;;
4986;SDS011;12674;51.500;7.552;2022-08-02T12:21:25;3.80;;;1.90;;
4986;SDS011;12674;51.500;7.552;2022-08-02T12:23:29;4.55;;;2.65;;
4986;SDS011;12674;51.500;7.552;2022-08-02T12:25:33;13.35;;;2.90;;
4986;SDS011;12674;51.500;7.552;2022-08-02T12:27:37;3.30;;;2.10;;
4986;SDS011;12674;51.500;7.552;2022-08-02T12:29:41;5.68;;;2.10;;
4986;SDS011;12674;51.500;7.552;2022-08-02T12:32:00;3.63;;;2.38;;
4986;SDS011;12674;51.500;7.552;2022-08-02T12:34:10;4.97;;;2.20;;
4986;SDS011;12674;51.500;7.552;2022-08-02T12:36:15;8.30;;;2.63;;
4986;SDS011;12674;51.500;7.552;2022-08-02T12:38:20;7.30;;;2.13;;
4986;SDS011;12674;51.500;7.552;2022-08-02T12:40:26;6.47;;;2.20;;
4986;SDS011;12674;51.500;7.552;2022-08-02T12:42:31;8.02;;;2.47;;
4986;SDS011;12674;51.500;7.552;2022-08-02T12:44:51;5.93;;;2.40;;
4986;SDS011;12674;51.500;7.552;2022-08-02T12:46:58;8.90;;;2.60;;
4986;SDS011;12674;51.500;7.552;2022-08-02T12:49:12;8.27;;;1.92;;
4986;SDS011;12674;51.500;7.552;2022-08-02T12:51:22;2.10;;;1.88;;
4986;SDS011;12674;51.500;7.552;2022-08-02T12:53:47;4.82;;;2.00;;